createdAt,value
2023-02-11T00:00:40.422Z,56.53
2023-02-11T00:03:08.583Z,50.47
2023-02-11T00:05:36.451Z,53.40
2023-02-11T00:08:04.339Z,53.13
2023-02-11T00:10:33.599Z,53.00
2023-02-11T00:13:01.536Z,47.97
2023-02-11T00:15:29.366Z,51.97
2023-02-11T00:17:57.326Z,49.50
2023-02-11T00:20:25.211Z,43.00
2023-02-11T00:22:53.075Z,51.33
2023-02-11T00:25:21.237Z,47.63
2023-02-11T00:27:50.449Z,48.80
2023-02-11T00:30:18.497Z,50.93
2023-02-11T00:32:46.386Z,51.03
2023-02-11T00:35:14.623Z,50.80
2023-02-11T00:37:42.528Z,51.00
2023-02-11T00:40:12.819Z,40.07
2023-02-11T00:42:40.722Z,49.90
2023-02-11T00:45:10.850Z,46.40
2023-02-11T00:47:38.820Z,49.20
2023-02-11T00:50:08.308Z,47.83
2023-02-11T00:52:36.294Z,46.17
2023-02-11T00:55:04.337Z,49.40
2023-02-11T00:57:33.596Z,47.17
2023-02-11T01:00:01.601Z,52.57
2023-02-11T01:02:30.916Z,50.23
2023-02-11T01:04:59.794Z,62.50
2023-02-11T01:07:28.212Z,51.50
2023-02-11T01:09:56.191Z,47.77
2023-02-11T01:12:24.439Z,49.03
2023-02-11T01:14:52.490Z,52.73
2023-02-11T01:17:20.748Z,47.83
2023-02-11T01:19:52.516Z,51.30
2023-02-11T01:22:20.693Z,46.93
2023-02-11T01:24:48.647Z,47.73
2023-02-11T01:27:16.570Z,53.10
2023-02-11T01:29:45.833Z,48.53
2023-02-11T01:32:14.392Z,52.77
2023-02-11T01:34:42.397Z,46.37
2023-02-11T01:37:12.256Z,46.67
2023-02-11T01:39:40.185Z,49.93
2023-02-11T01:42:08.275Z,49.77
2023-02-11T01:44:38.671Z,48.77
2023-02-11T01:47:06.939Z,52.83
2023-02-11T01:49:37.728Z,52.83
2023-02-11T01:52:10.629Z,53.50
2023-02-11T01:55:01.164Z,48.23
2023-02-11T01:57:33.174Z,54.63
2023-02-11T02:00:07.302Z,70.17
2023-02-11T02:02:54.973Z,52.93
2023-02-11T02:05:31.683Z,55.90
2023-02-11T02:08:22.943Z,63.97
2023-02-11T02:10:56.595Z,50.50
2023-02-11T02:13:25.465Z,53.13
2023-02-11T02:15:55.894Z,54.17
2023-02-11T02:18:39.416Z,54.27
2023-02-11T02:21:39.719Z,49.50
2023-02-11T02:24:32.272Z,48.00
2023-02-11T02:27:26.256Z,51.90
2023-02-11T02:30:47.709Z,55.93
2023-02-11T02:33:30.767Z,50.60
2023-02-11T02:36:08.733Z,53.37
2023-02-11T02:38:40.823Z,54.27
2023-02-11T02:41:11.768Z,55.90
2023-02-11T02:43:43.161Z,52.27
2023-02-11T02:46:16.375Z,45.47
2023-02-11T02:48:46.425Z,47.77
2023-02-11T02:51:46.257Z,51.47
2023-02-11T02:54:55.854Z,50.47
2023-02-11T02:57:31.860Z,44.50
2023-02-11T03:00:16.609Z,55.43
2023-02-11T03:02:58.408Z,43.40
2023-02-11T03:05:39.848Z,46.43
2023-02-11T03:08:11.377Z,50.03
2023-02-11T03:10:43.718Z,46.00
2023-02-11T03:13:12.495Z,48.37
2023-02-11T03:15:44.499Z,47.33
2023-02-11T03:18:17.077Z,48.77
2023-02-11T03:20:50.609Z,49.27
2023-02-11T03:23:22.069Z,47.23
2023-02-11T03:25:53.952Z,50.43
2023-02-11T03:28:30.480Z,46.13
2023-02-11T03:31:06.648Z,48.33
2023-02-11T03:33:42.649Z,47.07
2023-02-11T03:36:17.661Z,47.10
2023-02-11T03:38:49.860Z,54.47
2023-02-11T03:41:22.234Z,47.60
2023-02-11T03:43:54.095Z,45.40
2023-02-11T03:46:28.792Z,45.80
2023-02-11T03:49:00.405Z,48.33
2023-02-11T03:51:33.170Z,52.33
2023-02-11T03:54:06.012Z,43.13
2023-02-11T03:56:39.377Z,44.27
2023-02-11T03:59:07.562Z,51.90
2023-02-11T04:01:35.672Z,47.37
2023-02-11T04:04:03.652Z,46.60
2023-02-11T04:06:32.932Z,43.57
2023-02-11T04:09:00.767Z,51.50
2023-02-11T04:11:28.601Z,48.60
2023-02-11T04:13:56.526Z,40.77
2023-02-11T04:16:24.629Z,45.17
2023-02-11T04:18:52.526Z,52.80
2023-02-11T04:21:20.408Z,49.20
2023-02-11T04:23:49.852Z,45.87
2023-02-11T04:26:17.685Z,43.80
2023-02-11T04:28:45.530Z,45.03
2023-02-11T04:31:13.494Z,41.67
2023-02-11T04:33:41.334Z,51.43
2023-02-11T04:36:09.587Z,44.63
2023-02-11T04:38:37.434Z,47.50
2023-02-11T04:41:07.121Z,43.37
2023-02-11T04:43:35.043Z,42.07
2023-02-11T04:46:03.024Z,43.80
2023-02-11T04:48:31.083Z,42.00
2023-02-11T04:50:58.918Z,41.90
2023-02-11T04:53:27.163Z,40.50
2023-02-11T04:55:55.103Z,43.70
2023-02-11T04:58:24.593Z,45.60
2023-02-11T05:00:52.549Z,43.90
2023-02-11T05:03:20.471Z,44.70
2023-02-11T05:05:48.897Z,42.27
2023-02-11T05:08:17.466Z,42.00
2023-02-11T05:10:47.546Z,47.50
2023-02-11T05:13:15.517Z,46.00
2023-02-11T05:15:45.074Z,43.93
2023-02-11T05:18:14.862Z,44.27
2023-02-11T05:20:42.957Z,45.70
2023-02-11T05:23:10.923Z,43.43
2023-02-11T05:25:39.509Z,41.47
2023-02-11T05:28:07.892Z,44.43
2023-02-11T05:30:35.874Z,39.97
2023-02-11T05:33:05.237Z,53.73
2023-02-11T05:35:33.309Z,41.63
2023-02-11T05:38:01.270Z,47.10
2023-02-11T05:40:29.108Z,43.33
2023-02-11T05:42:56.974Z,42.67
2023-02-11T05:45:24.896Z,46.80
2023-02-11T05:47:52.815Z,45.43
2023-02-11T05:50:22.305Z,43.20
2023-02-11T05:52:53.871Z,39.97
2023-02-11T05:55:22.057Z,42.60
2023-02-11T05:57:50.027Z,41.67
2023-02-11T06:00:18.449Z,42.47
2023-02-11T06:02:46.379Z,39.47
2023-02-11T06:05:14.194Z,41.13
2023-02-11T06:07:43.578Z,43.37
2023-02-11T06:10:11.793Z,43.40
2023-02-11T06:12:39.977Z,38.60
2023-02-11T06:15:08.612Z,35.07
2023-02-11T06:17:37.418Z,43.50
2023-02-11T06:20:07.830Z,47.13
2023-02-11T06:22:35.779Z,40.67
2023-02-11T06:25:06.573Z,38.20
2023-02-11T06:27:34.483Z,41.50
2023-02-11T06:30:02.348Z,45.43
2023-02-11T06:32:46.504Z,39.67
2023-02-11T06:35:15.410Z,41.50
2023-02-11T06:37:43.908Z,43.00
2023-02-11T06:40:14.033Z,44.03
2023-02-11T06:42:42.439Z,48.67
2023-02-11T06:45:13.142Z,50.73
2023-02-11T06:47:41.991Z,42.73
2023-02-11T06:50:14.174Z,45.00
2023-02-11T06:52:42.436Z,46.43
2023-02-11T06:55:10.364Z,47.83
2023-02-11T06:57:39.822Z,40.83
2023-02-11T07:00:09.085Z,41.53
2023-02-11T07:02:37.139Z,45.57
2023-02-11T07:05:06.822Z,57.27
2023-02-11T07:07:34.998Z,43.03
2023-02-11T07:10:04.121Z,43.40
2023-02-11T07:12:32.426Z,37.50
2023-02-11T07:15:01.692Z,46.30
2023-02-11T07:17:29.722Z,44.97
2023-02-11T07:19:57.700Z,44.33
2023-02-11T07:22:25.693Z,41.47
2023-02-11T07:24:53.566Z,43.50
2023-02-11T07:27:21.926Z,43.60
2023-02-11T07:29:49.810Z,40.23
2023-02-11T07:32:19.258Z,41.27
2023-02-11T07:34:48.180Z,45.97
2023-02-11T07:37:16.200Z,49.03
2023-02-11T07:39:44.132Z,49.03
2023-02-11T07:42:12.115Z,42.63
2023-02-11T07:44:40.012Z,44.50
2023-02-11T07:47:07.936Z,43.30
2023-02-11T07:49:37.248Z,45.63
2023-02-11T07:52:05.160Z,49.80
2023-02-11T07:54:33.010Z,53.47
2023-02-11T07:57:00.893Z,48.70
2023-02-11T07:59:28.916Z,52.60
2023-02-11T08:01:56.793Z,65.83
2023-02-11T08:04:24.711Z,254.13
2023-02-11T08:06:58.675Z,128.57
2023-02-11T08:09:27.006Z,45.37
2023-02-11T08:11:54.870Z,57.93
2023-02-11T08:14:22.741Z,53.30
2023-02-11T08:16:50.811Z,42.50
2023-02-11T08:19:18.705Z,36.73
2023-02-11T08:21:47.075Z,37.10
2023-02-11T08:24:16.302Z,33.43
2023-02-11T08:26:44.662Z,36.33
2023-02-11T08:29:15.403Z,34.53
2023-02-11T08:31:46.248Z,36.47
2023-02-11T08:34:18.443Z,44.80
2023-02-11T08:36:47.722Z,33.03
2023-02-11T08:39:20.528Z,36.53
2023-02-11T08:41:50.679Z,36.03
2023-02-11T08:44:18.900Z,52.97
2023-02-11T08:46:46.851Z,39.03
2023-02-11T08:49:15.248Z,31.73
2023-02-11T08:51:43.909Z,35.13
2023-02-11T08:54:12.059Z,37.17
2023-02-11T08:56:41.544Z,35.77
2023-02-11T08:59:12.210Z,32.77
2023-02-11T09:01:40.089Z,39.20
2023-02-11T09:04:07.961Z,38.17
2023-02-11T09:06:36.189Z,33.13
2023-02-11T09:09:04.068Z,40.13
2023-02-11T09:11:34.174Z,40.57
2023-02-11T09:14:05.033Z,39.20
2023-02-11T09:16:35.850Z,41.77
2023-02-11T09:19:06.145Z,35.57
2023-02-11T09:21:34.168Z,36.03
2023-02-11T09:24:02.080Z,33.07
2023-02-11T09:26:32.327Z,32.57
2023-02-11T09:29:00.781Z,32.83
2023-02-11T09:31:31.631Z,32.00
2023-02-11T09:34:01.741Z,36.93
2023-02-11T09:36:32.435Z,33.10
2023-02-11T09:39:03.076Z,33.67
2023-02-11T09:41:48.589Z,31.40
2023-02-11T09:44:21.283Z,34.13
2023-02-11T09:46:55.973Z,29.73
2023-02-11T09:49:31.836Z,30.73
2023-02-11T09:52:06.185Z,32.13
2023-02-11T09:54:39.692Z,28.23
2023-02-11T09:57:22.964Z,29.33
2023-02-11T09:59:54.617Z,27.73
2023-02-11T10:02:28.589Z,24.67
2023-02-11T10:05:20.320Z,24.27
2023-02-11T10:07:56.546Z,25.13
2023-02-11T10:10:40.328Z,27.37
2023-02-11T10:13:33.327Z,24.63
2023-02-11T10:16:10.710Z,27.03
2023-02-11T10:18:51.671Z,23.93
2023-02-11T10:21:31.903Z,24.10
2023-02-11T10:24:04.046Z,26.70
2023-02-11T10:26:34.308Z,25.07
2023-02-11T10:29:12.228Z,25.50
2023-02-11T10:31:44.489Z,28.10
2023-02-11T10:34:15.526Z,26.20
2023-02-11T10:36:44.972Z,28.30
2023-02-11T10:39:15.365Z,29.27
2023-02-11T10:41:45.933Z,26.17
2023-02-11T10:44:26.580Z,23.77
2023-02-11T10:46:55.640Z,26.50
2023-02-11T10:49:38.419Z,23.53
2023-02-11T10:52:30.775Z,26.20
2023-02-11T10:55:01.663Z,23.97
2023-02-11T10:57:34.297Z,21.60
2023-02-11T11:00:07.418Z,27.73
2023-02-11T11:02:38.839Z,29.13
2023-02-11T11:05:17.502Z,22.43
2023-02-11T11:07:54.634Z,24.30
2023-02-11T11:10:43.136Z,24.30
2023-02-11T11:13:31.001Z,20.53
2023-02-11T11:16:17.630Z,25.53
2023-02-11T11:18:47.450Z,18.77
2023-02-11T11:21:20.818Z,17.93
2023-02-11T11:23:52.284Z,25.17
2023-02-11T11:26:21.240Z,17.70
2023-02-11T11:28:56.434Z,13.63
2023-02-11T11:31:27.153Z,15.73
2023-02-11T11:33:58.870Z,15.80
2023-02-11T11:36:35.990Z,9.90
2023-02-11T11:39:17.763Z,12.67
2023-02-11T11:41:52.950Z,11.87
2023-02-11T11:44:30.036Z,12.13
2023-02-11T11:47:28.098Z,13.27
2023-02-11T11:50:12.882Z,13.00
2023-02-11T11:52:47.463Z,13.50
2023-02-11T11:55:21.668Z,12.63
2023-02-11T11:57:50.142Z,14.80
2023-02-11T12:00:21.634Z,13.50
2023-02-11T12:03:13.270Z,12.30
2023-02-11T12:05:49.633Z,12.57
2023-02-11T12:08:29.705Z,13.63
2023-02-11T12:11:11.925Z,12.83
2023-02-11T12:13:52.920Z,14.90
2023-02-11T12:16:29.890Z,13.13
2023-02-11T12:19:28.170Z,12.43
2023-02-11T12:22:06.543Z,16.30
2023-02-11T12:24:49.478Z,17.97
2023-02-11T12:27:23.834Z,15.73
2023-02-11T12:30:04.872Z,13.87
2023-02-11T12:32:37.996Z,16.80
2023-02-11T12:35:17.847Z,16.10
2023-02-11T12:38:05.332Z,14.40
2023-02-11T12:40:43.244Z,15.27
2023-02-11T12:43:20.805Z,12.67
2023-02-11T12:46:20.938Z,15.10
2023-02-11T12:49:13.041Z,10.43
2023-02-11T12:51:56.581Z,10.23
2023-02-11T12:54:30.869Z,10.97
2023-02-11T12:57:04.889Z,14.93
2023-02-11T12:59:41.624Z,14.13
2023-02-11T13:02:19.945Z,8.07
2023-02-11T13:04:51.095Z,9.13
2023-02-11T13:07:24.621Z,10.63
2023-02-11T13:09:58.991Z,11.90
2023-02-11T13:12:49.368Z,10.07
2023-02-11T13:15:17.494Z,10.90
2023-02-11T13:17:54.357Z,13.03
2023-02-11T13:20:37.103Z,11.90
2023-02-11T13:23:13.475Z,8.37
2023-02-11T13:25:47.566Z,10.87
2023-02-11T13:28:41.390Z,12.57
2023-02-11T13:31:12.689Z,12.23
2023-02-11T13:33:43.112Z,13.77
2023-02-11T13:36:25.777Z,9.70
2023-02-11T13:38:56.918Z,10.07
2023-02-11T13:41:29.603Z,14.57
2023-02-11T13:44:22.457Z,11.70
2023-02-11T13:47:02.272Z,10.07
2023-02-11T13:49:40.338Z,11.10
2023-02-11T13:52:22.893Z,13.47
2023-02-11T13:54:52.952Z,18.07
2023-02-11T13:57:40.022Z,22.43
2023-02-11T14:00:49.074Z,17.43
2023-02-11T14:03:50.918Z,33.07
2023-02-11T14:06:40.301Z,21.80
2023-02-11T14:09:19.884Z,23.40
2023-02-11T14:11:50.526Z,24.63
2023-02-11T14:14:23.908Z,18.50
2023-02-11T14:17:33.333Z,20.17
2023-02-11T14:20:05.267Z,21.20
2023-02-11T14:22:44.548Z,18.60
2023-02-11T14:25:23.256Z,22.23
2023-02-11T14:27:57.122Z,18.57
2023-02-11T14:30:33.803Z,19.20
2023-02-11T14:33:17.861Z,20.33
2023-02-11T14:35:56.785Z,21.37
2023-02-11T14:38:34.145Z,23.33
2023-02-11T14:41:08.776Z,19.23
2023-02-11T14:43:41.179Z,22.03
2023-02-11T14:46:11.123Z,22.27
2023-02-11T14:48:47.007Z,24.43
2023-02-11T14:51:19.541Z,20.80
2023-02-11T14:53:50.682Z,22.50
2023-02-11T14:56:21.162Z,24.10
2023-02-11T14:58:51.752Z,21.93
2023-02-11T15:01:30.075Z,21.87
2023-02-11T15:04:01.365Z,23.77
2023-02-11T15:06:32.905Z,23.03
2023-02-11T15:09:03.738Z,22.00
2023-02-11T15:11:35.004Z,24.27
2023-02-11T15:14:09.894Z,18.30
2023-02-11T15:16:43.441Z,21.00
2023-02-11T15:19:22.293Z,22.20
2023-02-11T15:21:51.696Z,19.53
2023-02-11T15:24:25.474Z,18.23
2023-02-11T15:27:00.881Z,18.80
2023-02-11T15:29:30.197Z,15.53
2023-02-11T15:32:07.197Z,16.90
2023-02-11T15:34:37.262Z,17.13
2023-02-11T15:37:05.430Z,18.93
2023-02-11T15:39:37.488Z,19.73
2023-02-11T15:42:23.190Z,18.03
2023-02-11T15:45:08.950Z,18.50
2023-02-11T15:47:36.926Z,18.10
2023-02-11T15:50:07.352Z,17.33
2023-02-11T15:52:35.662Z,20.87
2023-02-11T15:55:03.863Z,16.73
2023-02-11T15:57:31.887Z,17.20
2023-02-11T16:00:04.358Z,21.27
2023-02-11T16:02:45.142Z,18.47
2023-02-11T16:05:28.915Z,18.43
2023-02-11T16:07:57.897Z,20.50
2023-02-11T16:10:28.993Z,17.10
2023-02-11T16:13:03.740Z,22.83
2023-02-11T16:15:50.827Z,17.63
2023-02-11T16:18:38.831Z,18.67
2023-02-11T16:21:17.022Z,22.33
2023-02-11T16:23:51.374Z,23.50
2023-02-11T16:26:26.133Z,22.97
2023-02-11T16:28:54.449Z,23.57
2023-02-11T16:31:22.531Z,27.23
2023-02-11T16:33:50.421Z,23.57
2023-02-11T16:36:19.622Z,24.90
2023-02-11T16:38:47.586Z,25.50
2023-02-11T16:41:15.493Z,28.53
2023-02-11T16:43:43.291Z,28.60
2023-02-11T16:46:15.870Z,28.50
2023-02-11T16:48:44.041Z,30.40
2023-02-11T16:51:13.222Z,29.40
2023-02-11T16:53:42.373Z,28.10
2023-02-11T16:56:16.717Z,32.03
2023-02-11T16:58:45.333Z,30.83
2023-02-11T17:01:14.333Z,29.07
2023-02-11T17:03:43.787Z,31.13
2023-02-11T17:06:13.572Z,32.70
2023-02-11T17:08:43.035Z,30.27
2023-02-11T17:11:10.835Z,30.53
2023-02-11T17:13:39.614Z,33.63
2023-02-11T17:16:16.916Z,28.43
2023-02-11T17:18:44.826Z,29.30
2023-02-11T17:21:12.813Z,34.47
2023-02-11T17:23:42.861Z,29.30
2023-02-11T17:26:10.966Z,32.53
2023-02-11T17:28:38.936Z,44.40
2023-02-11T17:31:09.548Z,33.17
2023-02-11T17:33:39.152Z,39.77
2023-02-11T17:36:08.730Z,39.13
2023-02-11T17:38:37.704Z,40.50
2023-02-11T17:41:07.240Z,37.23
2023-02-11T17:43:35.097Z,36.27
2023-02-11T17:46:06.634Z,38.07
2023-02-11T17:48:34.597Z,40.07
2023-02-11T17:51:02.423Z,33.90
2023-02-11T17:53:30.277Z,39.70
2023-02-11T17:55:58.314Z,51.30
2023-02-11T17:58:27.582Z,38.70
2023-02-11T18:00:59.302Z,49.23
2023-02-11T18:03:27.420Z,55.13
2023-02-11T18:05:55.195Z,51.23
2023-02-11T18:08:23.178Z,54.10
2023-02-11T18:10:50.985Z,58.63
2023-02-11T18:13:19.546Z,58.90
2023-02-11T18:15:48.828Z,45.03
2023-02-11T18:18:16.712Z,40.80
2023-02-11T18:20:46.461Z,36.47
2023-02-11T18:23:14.735Z,43.17
2023-02-11T18:25:42.914Z,34.70
2023-02-11T18:28:10.818Z,41.57
2023-02-11T18:30:38.765Z,35.37
2023-02-11T18:33:11.989Z,46.63
2023-02-11T18:35:39.950Z,43.37
2023-02-11T18:38:08.086Z,41.20
2023-02-11T18:40:36.668Z,41.40
2023-02-11T18:43:04.490Z,36.30
2023-02-11T18:45:32.328Z,41.77
2023-02-11T18:48:01.575Z,48.53
2023-02-11T18:50:30.754Z,43.67
2023-02-11T18:52:58.615Z,49.17
2023-02-11T18:55:26.491Z,56.90
2023-02-11T18:57:55.156Z,58.30
2023-02-11T19:00:23.726Z,58.73
2023-02-11T19:02:53.057Z,55.57
2023-02-11T19:05:21.590Z,51.30
2023-02-11T19:07:50.733Z,49.60
2023-02-11T19:10:18.816Z,43.80
2023-02-11T19:12:46.634Z,42.40
2023-02-11T19:15:15.114Z,39.67
2023-02-11T19:17:43.092Z,59.20
2023-02-11T19:20:11.599Z,55.40
2023-02-11T19:22:39.493Z,50.27
2023-02-11T19:25:09.394Z,51.80
2023-02-11T19:27:37.274Z,48.97
2023-02-11T19:30:05.733Z,46.27
2023-02-11T19:32:33.525Z,41.97
2023-02-11T19:35:01.388Z,40.90
2023-02-11T19:37:29.196Z,39.47
2023-02-11T19:39:57.103Z,43.27
2023-02-11T19:42:27.698Z,39.07
2023-02-11T19:44:55.744Z,42.17
2023-02-11T19:47:27.565Z,40.70
2023-02-11T19:49:55.403Z,35.80
2023-02-11T19:52:23.714Z,40.27
2023-02-11T19:54:51.860Z,44.93
2023-02-11T19:57:19.728Z,38.17
2023-02-11T19:59:49.292Z,40.33
2023-02-11T20:02:17.350Z,42.13
2023-02-11T20:04:46.213Z,40.07
2023-02-11T20:07:14.462Z,48.33
2023-02-11T20:09:42.637Z,47.80
2023-02-11T20:12:12.025Z,46.60
2023-02-11T20:14:40.022Z,55.90
2023-02-11T20:17:09.234Z,67.60
2023-02-11T20:19:37.093Z,73.60
2023-02-11T20:22:05.028Z,69.80
2023-02-11T20:24:32.864Z,66.80
2023-02-11T20:27:00.731Z,56.60
2023-02-11T20:29:31.104Z,70.50
2023-02-11T20:31:59.114Z,60.90
2023-02-11T20:34:29.485Z,61.97
2023-02-11T20:36:57.397Z,54.80
2023-02-11T20:39:26.859Z,55.00
2023-02-11T20:41:56.537Z,52.60
2023-02-11T20:44:24.891Z,51.53
2023-02-11T20:46:54.069Z,55.93
2023-02-11T20:49:24.350Z,54.20
2023-02-11T20:51:54.410Z,57.77
2023-02-11T20:54:23.402Z,51.53
2023-02-11T20:56:52.132Z,52.23
2023-02-11T20:59:20.944Z,52.97
2023-02-11T21:01:50.755Z,52.73
2023-02-11T21:04:20.753Z,48.80
2023-02-11T21:06:52.062Z,65.00
2023-02-11T21:09:22.906Z,56.17
2023-02-11T21:11:52.919Z,81.57
2023-02-11T21:14:22.281Z,74.80
2023-02-11T21:16:50.895Z,67.30
2023-02-11T21:19:18.987Z,65.27
2023-02-11T21:21:46.860Z,54.90
2023-02-11T21:24:15.198Z,47.37
2023-02-11T21:26:44.499Z,53.73
2023-02-11T21:29:12.677Z,61.17
2023-02-11T21:31:41.132Z,61.00
2023-02-11T21:34:09.048Z,53.23
2023-02-11T21:36:36.870Z,48.80
2023-02-11T21:39:05.973Z,48.23
2023-02-11T21:41:33.987Z,44.17
2023-02-11T21:44:03.256Z,41.93
2023-02-11T21:46:31.924Z,46.63
2023-02-11T21:49:00.403Z,41.23
2023-02-11T21:51:28.742Z,37.10
2023-02-11T21:53:58.302Z,42.17
2023-02-11T21:56:28.092Z,41.57
2023-02-11T21:58:57.468Z,41.17
2023-02-11T22:01:28.910Z,38.13
2023-02-11T22:03:57.131Z,37.63
2023-02-11T22:06:27.572Z,42.47
2023-02-11T22:08:56.248Z,39.30
2023-02-11T22:11:24.752Z,40.67
2023-02-11T22:13:54.628Z,43.73
2023-02-11T22:16:23.194Z,36.80
2023-02-11T22:18:52.874Z,41.23
2023-02-11T22:21:23.206Z,40.87
2023-02-11T22:23:51.940Z,38.23
2023-02-11T22:26:21.614Z,45.33
2023-02-11T22:28:50.081Z,47.70
2023-02-11T22:31:20.808Z,46.67
2023-02-11T22:33:49.564Z,40.07
2023-02-11T22:36:22.159Z,49.73
2023-02-11T22:38:50.598Z,48.37
2023-02-11T22:41:19.875Z,42.83
2023-02-11T22:43:48.139Z,38.67
2023-02-11T22:46:18.743Z,41.97
2023-02-11T22:48:47.368Z,43.37
2023-02-11T22:51:17.567Z,44.13
2023-02-11T22:53:50.644Z,41.00
2023-02-11T22:56:18.918Z,37.07
2023-02-11T22:58:47.100Z,39.23
2023-02-11T23:01:15.308Z,37.90
2023-02-11T23:03:43.374Z,40.27
2023-02-11T23:06:12.407Z,40.43
2023-02-11T23:08:42.961Z,40.97
2023-02-11T23:11:14.642Z,41.57
2023-02-11T23:13:43.489Z,44.13
2023-02-11T23:16:13.059Z,44.00
2023-02-11T23:18:42.678Z,47.20
2023-02-11T23:21:12.950Z,45.33
2023-02-11T23:23:41.032Z,46.73
2023-02-11T23:26:12.753Z,47.53
2023-02-11T23:28:41.375Z,48.30
2023-02-11T23:31:18.492Z,43.03
2023-02-11T23:33:47.438Z,50.73
2023-02-11T23:36:16.485Z,46.93
2023-02-11T23:38:44.688Z,54.50
2023-02-11T23:41:14.435Z,48.73
2023-02-11T23:43:42.757Z,46.57
2023-02-11T23:46:11.576Z,49.27
2023-02-11T23:48:40.465Z,45.77
2023-02-11T23:51:10.096Z,45.40
2023-02-11T23:53:38.255Z,48.47
2023-02-11T23:56:10.717Z,47.00
2023-02-11T23:58:39.935Z,45.40
